Time;durP1;ratioP1;P1;durP2;ratioP2;P2;SDS_P1;SDS_P2;PMS_P1;PMS_P2;Temp;Humidity;BMP_temperature;BMP_pressure;BME280_temperature;BME280_humidity;BME280_pressure;Samples;Min_cycle;Max_cycle;Signal;HPM_P1;HPM_P2
2022/05/16 00:00:25;;;;;;;11.53;3.92;;;;;;;12.72;57.95;100348.80;1695393;85;20995;-55
2022/05/16 00:02:59;;;;;;;9.25;3.87;;;;;;;12.70;58.08;100340.77;1695438;85;21007;-54
2022/05/16 00:05:28;;;;;;;9.35;3.60;;;;;;;12.69;58.19;100347.33;1668512;85;21007;-54
2022/05/16 00:07:58;;;;;;;12.50;3.47;;;;;;;12.67;58.38;100345.85;1695335;84;21018;-54
2022/05/16 00:10:27;;;;;;;12.05;3.60;;;;;;;12.63;58.56;100350.09;1695388;85;21035;-54
2022/05/16 00:12:59;;;;;;;8.18;3.95;;;;;;;12.59;58.77;100348.81;1695467;84;21090;-54
2022/05/16 00:15:27;;;;;;;10.53;3.70;;;;;;;12.55;58.99;100355.80;1695341;84;21407;-54
2022/05/16 00:17:56;;;;;;;8.95;3.60;;;;;;;12.53;59.09;100351.04;1695232;85;21603;-54
2022/05/16 00:20:25;;;;;;;9.58;3.52;;;;;;;12.52;59.21;100354.31;1688324;85;21047;-52
2022/05/16 00:22:55;;;;;;;9.15;3.40;;;;;;;12.51;59.29;100357.28;1688379;85;21424;-54
2022/05/16 00:25:24;;;;;;;6.75;2.83;;;;;;;12.52;59.42;100359.81;1688137;85;21000;-54
2022/05/16 00:27:52;;;;;;;6.97;2.20;;;;;;;12.52;59.53;100361.19;1688156;85;20999;-53
2022/05/16 00:30:21;;;;;;;7.75;2.65;;;;;;;12.50;59.57;100359.70;1688206;85;20999;-54
2022/05/16 00:32:51;;;;;;;6.80;2.50;;;;;;;12.49;59.72;100363.52;1688107;85;21023;-54
2022/05/16 00:35:21;;;;;;;6.90;2.60;;;;;;;12.44;59.77;100362.77;1688133;85;21020;-54
2022/05/16 00:37:50;;;;;;;4.58;2.12;;;;;;;12.40;60.05;100351.89;1688247;85;21023;-54
2022/05/16 00:40:19;;;;;;;6.15;2.42;;;;;;;12.35;60.19;100362.63;1688172;85;21404;-54
2022/05/16 00:42:49;;;;;;;4.78;1.80;;;;;;;12.33;60.22;100357.34;1688140;85;21035;-54
2022/05/16 00:45:18;;;;;;;4.85;2.00;;;;;;;12.30;60.30;100363.26;1688086;85;20999;-55
2022/05/16 00:47:48;;;;;;;5.80;1.92;;;;;;;12.25;60.39;100363.05;1688172;85;21003;-53
2022/05/16 00:50:17;;;;;;;5.12;2.10;;;;;;;12.25;60.54;100364.95;1688156;85;21495;-54
2022/05/16 00:52:48;;;;;;;5.75;1.95;;;;;;;12.18;60.55;100363.56;1688159;85;21023;-54
2022/05/16 00:55:24;;;;;;;6.97;1.85;;;;;;;12.17;60.64;100363.25;1688155;85;21039;-55
2022/05/16 00:57:57;;;;;;;10.82;2.08;;;;;;;12.16;60.66;100373.06;1688291;85;21007;-53
2022/05/16 01:00:34;;;;;;;6.70;2.00;;;;;;;12.14;60.61;100366.94;1688190;85;20995;-54
2022/05/16 01:06:01;;;;;;;8.63;2.40;;;;;;;12.13;60.58;100359.75;1688148;85;21043;-55
2022/05/16 01:08:34;;;;;;;8.40;2.58;;;;;;;12.08;60.59;100363.66;1688305;85;20994;-53
2022/05/16 01:11:09;;;;;;;8.03;2.90;;;;;;;12.05;60.65;100369.88;1688311;85;21024;-53
2022/05/16 01:13:40;;;;;;;5.55;2.75;;;;;;;12.03;60.54;100362.37;1688438;85;21027;-52
2022/05/16 01:16:08;;;;;;;8.23;2.80;;;;;;;12.00;60.37;100357.30;1688249;85;21008;-53
2022/05/16 01:18:37;;;;;;;7.55;2.72;;;;;;;11.97;60.38;100363.21;1688575;85;21020;-52
2022/05/16 01:21:31;;;;;;;5.45;2.22;;;;;;;11.97;60.45;100356.88;1695351;85;20984;-54
2022/05/16 01:24:08;;;;;;;7.42;2.62;;;;;;;11.97;60.48;100360.47;1695362;85;21044;-53
2022/05/16 01:26:37;;;;;;;6.10;2.52;;;;;;;11.91;60.60;100354.95;1695479;84;21430;-54
2022/05/16 01:29:06;;;;;;;6.08;2.47;;;;;;;11.84;60.68;100356.84;1695387;84;21007;-52
2022/05/16 01:31:36;;;;;;;7.03;2.60;;;;;;;11.78;60.94;100353.55;1695374;85;21015;-52
2022/05/16 01:34:04;;;;;;;5.53;2.00;;;;;;;11.65;61.15;100351.02;1695484;85;21455;-53
2022/05/16 01:36:33;;;;;;;7.12;2.40;;;;;;;11.58;61.40;100354.27;1695415;84;21027;-53
2022/05/16 01:39:02;;;;;;;4.70;2.30;;;;;;;11.48;61.65;100361.19;1695376;85;21027;-53
2022/05/16 01:41:31;;;;;;;5.47;2.50;;;;;;;11.39;61.95;100360.52;1695265;85;20991;-53
2022/05/16 01:44:01;;;;;;;10.00;2.80;;;;;;;11.33;62.25;100362.70;1695546;85;20991;-55
2022/05/16 01:46:36;;;;;;;6.35;2.47;;;;;;;11.28;62.35;100361.09;1695397;85;20987;-54
2022/05/16 01:49:05;;;;;;;6.42;2.17;;;;;;;11.23;62.48;100363.61;1695352;85;20980;-54
2022/05/16 01:51:35;;;;;;;7.10;2.45;;;;;;;11.13;62.84;100361.75;1695357;85;20995;-53
2022/05/16 01:54:04;;;;;;;7.12;2.45;;;;;;;11.01;63.29;100360.08;1695256;85;21015;-54
2022/05/16 01:56:34;;;;;;;7.05;2.67;;;;;;;10.90;63.69;100364.22;1695366;85;21007;-53
2022/05/16 01:59:03;;;;;;;6.87;2.80;;;;;;;10.81;63.99;100366.80;1695439;85;21419;-53
2022/05/16 02:01:32;;;;;;;8.05;2.50;;;;;;;10.74;64.30;100368.64;1695335;85;21015;-54
2022/05/16 02:04:01;;;;;;;8.33;2.30;;;;;;;10.66;64.54;100365.53;1695326;85;21423;-55
2022/05/16 02:06:31;;;;;;;5.53;2.27;;;;;;;10.60;64.74;100370.44;1695343;85;20968;-54
2022/05/16 02:09:01;;;;;;;4.72;2.12;;;;;;;10.55;65.00;100363.86;1695313;85;21354;-54
2022/05/16 02:11:30;;;;;;;7.28;2.45;;;;;;;10.48;65.24;100361.91;1695292;84;20996;-54
2022/05/16 02:13:59;;;;;;;7.05;2.90;;;;;;;10.42;65.45;100359.97;1695393;85;21023;-54
2022/05/16 02:16:27;;;;;;;6.10;2.42;;;;;;;10.37;65.65;100362.94;1695359;85;21007;-52
2022/05/16 02:18:56;;;;;;;5.08;2.22;;;;;;;10.35;65.81;100365.03;1695538;84;21043;-54
2022/05/16 02:27:00;;;;;;;4.78;2.00;;;;;;;10.36;65.97;100366.20;1700817;84;21006;-53
2022/05/16 02:29:29;;;;;;;4.37;2.00;;;;;;;10.30;66.19;100368.88;1700743;84;21035;-53
2022/05/16 02:31:58;;;;;;;5.20;2.05;;;;;;;10.23;66.37;100367.45;1700819;84;21003;-54
2022/05/16 02:34:27;;;;;;;5.00;2.42;;;;;;;10.22;66.54;100370.39;1700759;84;21069;-53
2022/05/16 02:36:56;;;;;;;5.12;2.37;;;;;;;10.22;66.65;100371.76;1700857;84;20987;-53
2022/05/16 02:39:25;;;;;;;7.37;2.40;;;;;;;10.22;66.66;100369.87;1700922;84;21019;-53
2022/05/16 02:41:54;;;;;;;4.87;2.05;;;;;;;10.23;66.66;100370.19;1700874;84;21018;-54
2022/05/16 02:44:23;;;;;;;6.03;2.37;;;;;;;10.19;66.71;100368.86;1700865;84;21042;-54
2022/05/16 02:46:52;;;;;;;4.83;2.20;;;;;;;10.14;66.92;100373.55;1701077;84;21063;-53
2022/05/16 02:49:22;;;;;;;6.65;2.30;;;;;;;10.15;67.04;100369.77;1700885;84;20995;-54
2022/05/16 02:51:51;;;;;;;7.78;2.40;;;;;;;10.17;67.09;100372.31;1700886;84;21316;-53
2022/05/16 02:54:19;;;;;;;5.70;2.10;;;;;;;10.16;67.11;100378.31;1700881;84;21415;-54
2022/05/16 02:56:48;;;;;;;4.83;2.05;;;;;;;10.14;67.23;100381.77;1700972;84;20987;-54
2022/05/16 02:59:17;;;;;;;6.97;2.40;;;;;;;10.06;67.39;100379.67;1700967;84;21007;-52
2022/05/16 03:01:45;;;;;;;10.93;2.47;;;;;;;10.03;67.60;100388.28;1700893;84;20995;-54
2022/05/16 03:04:14;;;;;;;5.85;2.33;;;;;;;9.99;67.75;100382.87;1700908;84;21395;-55
2022/05/16 03:06:43;;;;;;;6.15;2.52;;;;;;;9.98;67.95;100385.28;1700920;84;21023;-53
2022/05/16 03:09:12;;;;;;;6.33;2.35;;;;;;;9.94;68.09;100390.30;1700848;84;20991;-53
2022/05/16 03:11:41;;;;;;;4.03;2.00;;;;;;;9.95;68.18;100381.56;1700898;84;21123;-53
2022/05/16 03:14:09;;;;;;;4.03;2.42;;;;;;;10.00;68.26;100384.04;1700867;84;21418;-53
2022/05/16 03:16:38;;;;;;;5.78;2.10;;;;;;;10.04;68.29;100384.50;1700937;84;20999;-54
2022/05/16 03:19:07;;;;;;;4.85;1.85;;;;;;;10.04;68.23;100384.50;1700928;84;21030;-55
2022/05/16 03:21:37;;;;;;;11.43;2.67;;;;;;;10.11;68.27;100383.52;1700858;84;21414;-54
2022/05/16 03:24:06;;;;;;;7.83;2.58;;;;;;;10.17;68.17;100373.68;1700909;84;21003;-53
2022/05/16 03:26:37;;;;;;;6.67;2.17;;;;;;;10.21;68.02;100378.28;1700899;84;20984;-52
2022/05/16 03:29:11;;;;;;;14.33;2.27;;;;;;;10.26;68.01;100375.80;1700927;84;20994;-54
2022/05/16 03:31:39;;;;;;;5.03;2.58;;;;;;;10.29;67.98;100377.62;1700900;84;20999;-54
2022/05/16 03:34:09;;;;;;;5.75;2.33;;;;;;;10.33;67.80;100379.44;1701066;84;21055;-53
2022/05/16 03:36:37;;;;;;;5.97;2.17;;;;;;;10.35;67.73;100382.83;1701243;84;21415;-54
2022/05/16 03:41:53;;;;;;;5.85;2.20;;;;;;;10.46;67.52;100375.48;1701089;84;20998;-54
2022/05/16 03:44:23;;;;;;;7.15;2.33;;;;;;;10.52;67.36;100382.91;1700860;84;21023;-53
2022/05/16 03:46:53;;;;;;;7.30;2.52;;;;;;;10.59;67.25;100381.59;1701013;84;21027;-54
2022/05/16 03:49:22;;;;;;;11.45;2.70;;;;;;;10.68;67.11;100381.25;1700837;84;21061;-57
2022/05/16 03:51:51;;;;;;;10.55;3.02;;;;;;;10.76;66.84;100382.99;1701007;84;21410;-52
2022/05/16 03:54:19;;;;;;;5.62;2.37;;;;;;;10.84;66.55;100381.47;1700892;84;21019;-53
2022/05/16 03:56:48;;;;;;;7.20;2.90;;;;;;;10.93;66.41;100389.87;1700833;84;20964;-55
2022/05/16 03:59:17;;;;;;;7.55;2.72;;;;;;;10.96;66.50;100386.72;1700876;84;21087;-54
2022/05/16 04:01:46;;;;;;;5.50;2.70;;;;;;;10.98;66.37;100390.11;1701015;84;21023;-54
2022/05/16 04:04:16;;;;;;;6.05;2.85;;;;;;;11.01;66.22;100382.86;1700841;84;21002;-55
2022/05/16 04:06:45;;;;;;;7.72;2.95;;;;;;;11.06;66.11;100387.77;1701113;84;20991;-53
2022/05/16 04:09:14;;;;;;;13.15;3.00;;;;;;;11.08;65.99;100385.14;1700856;84;21027;-53
2022/05/16 04:11:44;;;;;;;8.25;2.85;;;;;;;11.12;65.79;100378.73;1700853;84;21097;-53
2022/05/16 04:14:12;;;;;;;6.12;2.67;;;;;;;11.20;65.37;100387.33;1700925;84;20991;-53
2022/05/16 04:16:42;;;;;;;7.72;2.80;;;;;;;11.28;65.26;100388.53;1700970;84;21032;-53
2022/05/16 04:19:10;;;;;;;5.97;2.55;;;;;;;11.32;65.11;100381.06;1700866;84;21007;-54
2022/05/16 04:21:39;;;;;;;7.65;2.70;;;;;;;11.39;64.76;100386.05;1695908;84;21019;-53
2022/05/16 04:24:08;;;;;;;7.75;2.42;;;;;;;11.49;64.07;100388.42;1695319;85;21004;-53
2022/05/16 04:26:37;;;;;;;7.92;2.42;;;;;;;11.59;63.43;100387.52;1695707;85;21015;-55
2022/05/16 04:29:06;;;;;;;4.75;2.55;;;;;;;11.68;62.79;100383.54;1695310;85;21003;-53
2022/05/16 04:31:36;;;;;;;5.55;2.10;;;;;;;11.77;62.38;100376.00;1695381;84;21055;-52
2022/05/16 04:34:09;;;;;;;9.25;3.27;;;;;;;11.87;61.74;100378.39;1695295;85;21419;-54
2022/05/16 04:36:43;;;;;;;6.72;2.47;;;;;;;11.97;61.06;100377.47;1695277;85;20995;-53
2022/05/16 04:39:09;;;;;;;6.45;2.70;;;;;;;12.06;60.45;100373.47;1695111;85;21455;-57
2022/05/16 04:44:25;;;;;;;8.05;2.20;;;;;;;12.26;59.42;100379.00;1695462;85;21053;-54
2022/05/16 04:46:54;;;;;;;6.95;1.80;;;;;;;12.34;58.81;100372.77;1695284;85;21367;-55
2022/05/16 04:49:22;;;;;;;7.00;2.33;;;;;;;12.44;58.54;100376.52;1695396;85;21020;-54
2022/05/16 04:51:51;;;;;;;6.78;1.72;;;;;;;12.60;58.45;100374.72;1695347;85;21015;-55
2022/05/16 04:54:20;;;;;;;5.20;2.20;;;;;;;12.79;58.40;100378.52;1695342;85;21047;-53
2022/05/16 04:56:51;;;;;;;5.72;1.90;;;;;;;12.96;57.96;100375.64;1695321;84;20995;-53
2022/05/16 04:59:21;;;;;;;5.42;2.00;;;;;;;13.14;56.68;100377.75;1695230;84;20991;-54
2022/05/16 05:01:50;;;;;;;4.75;1.70;;;;;;;13.33;55.67;100374.66;1695562;85;21003;-55
2022/05/16 05:04:20;;;;;;;6.05;1.90;;;;;;;13.56;54.57;100373.63;1695470;85;21125;-55
2022/05/16 05:06:49;;;;;;;3.62;1.35;;;;;;;13.79;53.72;100374.51;1695425;85;20995;-54
2022/05/16 05:09:18;;;;;;;5.60;2.80;;;;;;;14.03;52.78;100375.65;1695455;84;20967;-54
2022/05/16 05:14:34;;;;;;;2.83;1.27;;;;;;;14.60;51.64;100368.30;1695363;85;21023;-55
2022/05/16 05:17:06;;;;;;;5.03;1.52;;;;;;;14.93;49.31;100363.02;1695444;84;21096;-55
2022/05/16 05:19:36;;;;;;;4.03;1.35;;;;;;;15.16;48.27;100361.86;1695547;85;21024;-55
2022/05/16 05:22:04;;;;;;;3.47;1.20;;;;;;;15.47;47.66;100363.09;1695211;85;21067;-55
2022/05/16 05:24:33;;;;;;;5.30;1.57;;;;;;;15.79;46.61;100362.44;1695332;85;21003;-54
2022/05/16 05:27:03;;;;;;;4.37;1.52;;;;;;;16.12;45.29;100368.87;1695433;84;21019;-55
2022/05/16 05:29:32;;;;;;;3.17;1.32;;;;;;;16.34;45.13;100373.37;1695351;85;21015;-54
2022/05/16 05:32:03;;;;;;;5.90;1.70;;;;;;;16.53;43.88;100367.22;1695463;85;20995;-55
2022/05/16 05:34:36;;;;;;;5.05;1.30;;;;;;;16.66;43.65;100366.19;1695228;85;21036;-55
2022/05/16 05:37:05;;;;;;;3.70;1.52;;;;;;;16.89;44.02;100361.21;1695298;85;21024;-55
2022/05/16 05:39:35;;;;;;;3.08;1.22;;;;;;;17.18;43.25;100357.50;1695307;85;21035;-54
2022/05/16 05:42:05;;;;;;;4.62;1.52;;;;;;;17.51;42.51;100362.93;1695472;85;20999;-56
2022/05/16 05:44:33;;;;;;;2.58;1.50;;;;;;;17.78;41.67;100364.12;1695417;85;21016;-54
2022/05/16 05:47:03;;;;;;;3.55;1.47;;;;;;;18.03;40.64;100366.02;1695301;85;21055;-55
2022/05/16 05:49:31;;;;;;;4.75;1.40;;;;;;;18.35;40.11;100358.05;1667841;85;21043;-55
2022/05/16 05:52:00;;;;;;;3.27;0.93;;;;;;;18.56;38.80;100364.80;1695338;85;20999;-54
2022/05/16 05:54:29;;;;;;;2.85;1.00;;;;;;;18.73;38.25;100362.06;1695465;85;21055;-54
2022/05/16 05:56:58;;;;;;;3.70;1.15;;;;;;;18.96;37.20;100359.13;1695321;85;21004;-55
2022/05/16 05:59:26;;;;;;;1.98;0.85;;;;;;;19.21;36.94;100358.67;1695362;85;20991;-56
2022/05/16 06:01:55;;;;;;;2.85;1.10;;;;;;;19.40;35.91;100363.38;1695248;85;20996;-55
2022/05/16 06:04:24;;;;;;;5.78;1.27;;;;;;;19.35;35.97;100359.70;1695307;85;21007;-55
2022/05/16 06:06:53;;;;;;;11.88;2.00;;;;;;;19.39;35.54;100353.92;1695338;85;21003;-56
2022/05/16 06:09:22;;;;;;;3.50;1.30;;;;;;;19.42;35.34;100354.24;1695367;85;21044;-55
2022/05/16 06:11:51;;;;;;;4.37;1.10;;;;;;;19.41;34.83;100354.50;1695301;85;20991;-56
2022/05/16 06:14:20;;;;;;;2.08;0.98;;;;;;;19.33;34.65;100353.01;1695240;85;21392;-55
2022/05/16 06:16:49;;;;;;;2.12;1.00;;;;;;;19.14;34.83;100362.19;1695330;85;20980;-54
2022/05/16 06:19:18;;;;;;;4.62;1.50;;;;;;;18.93;34.76;100361.58;1695227;85;21034;-56
2022/05/16 06:21:46;;;;;;;4.75;1.00;;;;;;;18.74;35.40;100362.35;1695184;85;21043;-55
2022/05/16 06:27:06;;;;;;;4.42;1.10;;;;;;;18.43;35.81;100366.51;1695260;84;21031;-58
2022/05/16 06:29:35;;;;;;;5.33;1.22;;;;;;;18.20;36.30;100369.37;1695307;85;21400;-54
2022/05/16 06:32:10;;;;;;;2.35;1.10;;;;;;;18.19;36.88;100363.53;1695287;85;20992;-55
2022/05/16 06:34:49;;;;;;;5.12;1.32;;;;;;;18.47;36.67;100364.08;1695303;85;21063;-53
2022/05/16 06:37:18;;;;;;;4.08;1.17;;;;;;;18.90;35.89;100357.92;1695286;85;21000;-56
2022/05/16 06:39:47;;;;;;;2.17;0.85;;;;;;;19.35;34.92;100361.09;1695228;85;21019;-56
2022/05/16 06:42:16;;;;;;;3.72;1.00;;;;;;;19.71;33.87;100357.73;1695303;85;21007;-56
2022/05/16 06:44:45;;;;;;;2.52;1.02;;;;;;;19.76;34.04;100360.58;1695323;85;20959;-54
2022/05/16 06:47:14;;;;;;;4.40;1.00;;;;;;;19.58;34.13;100347.02;1695299;85;20956;-56
2022/05/16 06:49:43;;;;;;;5.05;1.07;;;;;;;19.43;34.88;100342.58;1695312;85;20995;-56
2022/05/16 06:52:12;;;;;;;3.12;0.95;;;;;;;19.59;35.08;100344.52;1695304;85;21027;-55
2022/05/16 06:54:41;;;;;;;2.62;0.85;;;;;;;19.90;33.41;100346.58;1695285;85;20989;-55
2022/05/16 06:57:11;;;;;;;2.60;1.10;;;;;;;20.19;32.56;100346.36;1695312;84;21007;-56
2022/05/16 06:59:41;;;;;;;2.72;1.00;;;;;;;20.57;30.97;100343.41;1695271;85;21011;-56
2022/05/16 07:02:10;;;;;;;4.00;0.90;;;;;;;20.93;31.07;100333.98;1695319;85;20968;-56
2022/05/16 07:04:39;;;;;;;3.52;0.90;;;;;;;21.10;30.74;100340.23;1695347;85;21532;-55
2022/05/16 07:07:08;;;;;;;1.95;0.90;;;;;;;21.05;31.37;100334.63;1695325;85;21376;-55
2022/05/16 07:09:41;;;;;;;3.45;0.82;;;;;;;21.15;30.77;100330.50;1695118;85;21036;-56
2022/05/16 07:12:11;;;;;;;3.47;1.05;;;;;;;21.22;29.67;100333.05;1695287;85;21438;-55
2022/05/16 07:14:41;;;;;;;2.37;0.80;;;;;;;21.24;31.00;100330.03;1695245;85;21059;-55
2022/05/16 07:17:09;;;;;;;5.22;1.00;;;;;;;21.35;31.75;100335.39;1695232;85;20968;-56
2022/05/16 07:19:38;;;;;;;2.95;0.80;;;;;;;21.47;31.89;100322.66;1695259;85;21001;-54
2022/05/16 07:22:14;;;;;;;3.62;1.17;;;;;;;21.80;31.09;100332.00;1690541;84;21586;-55
2022/05/16 07:24:43;;;;;;;3.98;1.30;;;;;;;21.89;30.68;100332.30;1688437;85;20987;-55
2022/05/16 07:29:59;;;;;;;2.60;0.80;;;;;;;21.27;31.41;100330.88;1688297;85;21023;-55
2022/05/16 07:32:41;;;;;;;4.08;1.37;;;;;;;20.87;32.24;100323.91;1688219;85;21261;-55
2022/05/16 07:35:14;;;;;;;2.50;0.95;;;;;;;20.64;32.76;100324.25;1688103;85;21024;-54
2022/05/16 07:37:44;;;;;;;2.55;0.90;;;;;;;20.58;32.92;100324.77;1688210;85;20983;-57
2022/05/16 07:40:16;;;;;;;2.35;1.00;;;;;;;20.61;32.99;100328.97;1688273;85;21000;-54
2022/05/16 07:42:50;;;;;;;0.95;0.70;;;;;;;20.68;32.47;100322.06;1688340;85;21012;-55
2022/05/16 07:45:19;;;;;;;4.37;0.82;;;;;;;20.62;32.24;100328.70;1688156;85;21024;-55
2022/05/16 07:47:49;;;;;;;3.25;1.32;;;;;;;20.50;32.25;100326.09;1688164;85;20976;-56
2022/05/16 07:50:20;;;;;;;5.05;1.07;;;;;;;20.43;32.29;100319.91;1698653;83;21648;-56
2022/05/16 07:52:48;;;;;;;4.12;0.90;;;;;;;20.53;32.52;100322.78;1705644;83;20992;-59
2022/05/16 07:55:21;;;;;;;8.48;1.10;;;;;;;20.76;31.65;100319.34;1708717;83;21065;-57
2022/05/16 07:57:50;;;;;;;4.30;1.30;;;;;;;20.83;31.79;100322.77;1714000;83;21380;-57
2022/05/16 08:00:21;;;;;;;2.37;1.00;;;;;;;20.95;31.60;100323.97;1703639;83;21003;-59
2022/05/16 08:02:53;;;;;;;4.22;0.90;;;;;;;20.92;31.66;100311.41;1695463;85;20972;-56
2022/05/16 08:05:22;;;;;;;2.72;1.40;;;;;;;20.91;32.21;100318.64;1695509;85;21356;-58
2022/05/16 08:10:39;;;;;;;2.02;1.20;;;;;;;21.00;32.03;100315.09;1710206;83;21444;-58
2022/05/16 08:13:10;;;;;;;4.67;1.50;;;;;;;20.96;32.40;100321.46;1700364;83;21471;-58
2022/05/16 08:15:40;;;;;;;1.35;0.90;;;;;;;20.82;31.85;100309.39;1692313;83;21470;-57
2022/05/16 08:18:11;;;;;;;5.75;1.10;;;;;;;20.48;32.05;100321.34;1688083;85;20995;-55
2022/05/16 08:20:42;;;;;;;7.62;1.10;;;;;;;20.14;32.71;100329.03;1688060;85;21423;-57
2022/05/16 08:23:13;;;;;;;6.53;1.50;;;;;;;19.77;32.81;100334.46;1689920;83;21420;-57
2022/05/16 08:25:43;;;;;;;4.90;1.02;;;;;;;19.49;32.92;100321.55;1672826;85;21420;-56
2022/05/16 08:28:13;;;;;;;4.30;1.90;;;;;;;19.59;33.29;100317.56;1663754;86;21087;-56
2022/05/16 08:30:42;;;;;;;3.85;1.70;;;;;;;20.00;32.66;100315.80;1663810;86;21003;-57
2022/05/16 08:33:11;;;;;;;2.22;0.98;;;;;;;20.46;30.71;100317.98;1663673;86;21419;-58
2022/05/16 08:35:41;;;;;;;2.33;0.80;;;;;;;20.84;29.40;100311.36;1663680;86;21036;-57
2022/05/16 08:41:06;;;;;;;2.77;1.20;;;;;;;21.09;29.31;100316.26;1663867;86;21077;-58
2022/05/16 08:44:07;;;;;;;3.02;1.40;;;;;;;21.12;30.09;100321.30;1663632;86;21027;-56
2022/05/16 08:46:49;;;;;;;2.83;1.40;;;;;;;21.08;29.64;100321.55;1626517;87;21029;-55
2022/05/16 08:49:26;;;;;;;4.67;2.42;;;;;;;20.89;28.65;100323.93;1655998;86;21032;-57
2022/05/16 08:52:22;;;;;;;10.18;2.70;;;;;;;20.67;28.90;100323.72;1664937;86;21077;-58
2022/05/16 08:55:08;;;;;;;5.55;2.08;;;;;;;20.50;29.42;100331.66;1665002;86;21136;-59
2022/05/16 08:57:41;;;;;;;7.25;2.20;;;;;;;20.39;30.02;100328.50;1666179;86;21015;-57
2022/05/16 09:00:28;;;;;;;6.05;1.90;;;;;;;20.19;30.48;100333.28;1636785;86;21007;-58
2022/05/16 09:02:57;;;;;;;6.08;1.27;;;;;;;20.04;31.33;100332.25;1666162;86;21011;-58
2022/05/16 09:05:34;;;;;;;3.83;1.20;;;;;;;19.92;31.33;100336.03;1666045;85;21020;-59
2022/05/16 09:08:06;;;;;;;5.00;0.90;;;;;;;19.89;30.57;100333.77;1666393;86;20987;-57
2022/05/16 09:11:01;;;;;;;2.22;1.00;;;;;;;19.99;29.11;100336.38;1666081;85;21018;-58
2022/05/16 09:13:38;;;;;;;4.37;1.00;;;;;;;20.17;28.56;100334.09;1666017;86;21027;-57
2022/05/16 09:16:16;;;;;;;;;;;;;;;20.20;28.91;100324.39;1668567;86;21415;-58
2022/05/16 09:19:06;;;;;;;4.95;0.93;;;;;;;20.07;29.12;100326.17;1666313;86;20160;-58
2022/05/16 09:22:19;;;;;;;2.27;1.35;;;;;;;19.86;28.74;100326.50;1671104;84;21078;-58
2022/05/16 09:24:54;;;;;;;2.25;1.12;;;;;;;19.62;28.83;100324.55;1695993;84;21047;-58
2022/05/16 09:30:22;;;;;;;2.27;1.00;;;;;;;19.66;29.60;100306.25;1680793;85;21017;-57
2022/05/16 09:33:01;;;;;;;4.58;1.80;;;;;;;19.64;29.69;100314.01;1680863;85;21014;-56
2022/05/16 09:35:42;;;;;;;2.50;1.40;;;;;;;19.58;29.90;100315.05;1680806;85;21087;-56
2022/05/16 09:38:11;;;;;;;8.60;2.80;;;;;;;19.62;30.43;100320.38;1680866;85;21425;-58
2022/05/16 09:40:49;;;;;;;2.75;1.25;;;;;;;19.75;29.85;100313.58;1680753;85;21386;-58
2022/05/16 09:43:20;;;;;;;4.35;1.45;;;;;;;19.92;29.56;100311.00;1642166;85;21101;-56
2022/05/16 09:45:54;;;;;;;3.77;1.20;;;;;;;20.01;29.24;100311.92;1680810;85;21029;-57
2022/05/16 09:48:23;;;;;;;1.82;1.05;;;;;;;19.99;29.07;100316.35;1680447;85;21056;-57
2022/05/16 09:51:00;;;;;;;2.40;1.25;;;;;;;19.90;29.13;100317.38;1680914;85;21311;-57
2022/05/16 09:53:39;;;;;;;2.80;1.00;;;;;;;19.81;29.26;100327.83;1691488;84;21040;-58
2022/05/16 09:56:28;;;;;;;4.15;1.47;;;;;;;19.67;29.12;100320.98;1692351;83;20995;-58
2022/05/16 09:59:02;;;;;;;6.70;1.40;;;;;;;19.56;29.23;100320.86;1695970;84;21475;-58
2022/05/16 10:01:40;;;;;;;3.22;1.30;;;;;;;19.42;29.67;100322.29;1696018;84;21432;-57
2022/05/16 10:04:18;;;;;;;3.00;1.30;;;;;;;19.36;29.85;100320.54;1695966;84;21027;-57
2022/05/16 10:07:03;;;;;;;3.75;1.25;;;;;;;19.34;29.80;100318.56;1696172;83;20992;-57
2022/05/16 10:09:46;;;;;;;2.55;1.10;;;;;;;19.28;29.98;100314.88;1695965;84;21012;-58
2022/05/16 10:12:18;;;;;;;4.05;1.00;;;;;;;19.27;29.76;100322.92;1695973;84;20972;-57
2022/05/16 10:14:46;;;;;;;2.58;0.90;;;;;;;19.31;29.85;100306.58;1669655;84;21031;-57
2022/05/16 10:17:33;;;;;;;3.92;1.22;;;;;;;19.35;29.71;100302.73;1695932;84;21102;-58
2022/05/16 10:20:12;;;;;;;3.58;1.00;;;;;;;19.39;29.64;100310.84;1696025;83;21423;-57
2022/05/16 10:22:41;;;;;;;5.12;1.07;;;;;;;19.46;29.42;100304.55;1658442;85;21049;-57
2022/05/16 10:25:15;;;;;;;4.47;1.00;;;;;;;19.50;29.27;100307.09;1662192;86;21436;-57
2022/05/16 10:27:46;;;;;;;2.77;1.02;;;;;;;19.54;29.49;100302.22;1671787;85;21044;-56
2022/05/16 10:30:21;;;;;;;7.15;1.42;;;;;;;19.55;29.57;100314.17;1623608;86;20985;-57
2022/05/16 10:35:53;;;;;;;4.03;2.35;;;;;;;19.43;30.15;100321.73;1671968;86;21013;-57
2022/05/16 10:38:55;;;;;;;4.28;1.20;;;;;;;19.37;30.21;100311.66;1671839;86;21025;-56
2022/05/16 10:41:37;;;;;;;5.55;1.55;;;;;;;19.31;30.34;100310.20;1671735;86;21003;-57
2022/05/16 10:44:39;;;;;;;4.53;1.30;;;;;;;19.25;30.56;100309.00;1648107;86;21047;-58
2022/05/16 10:47:29;;;;;;;1.85;0.90;;;;;;;19.12;31.02;100306.59;1630023;88;20987;-57
2022/05/16 10:50:12;;;;;;;9.98;1.40;;;;;;;19.12;31.08;100301.87;1646272;86;21028;-57
2022/05/16 10:52:56;;;;;;;3.80;1.00;;;;;;;19.20;31.05;100297.81;1671844;85;21000;-57
2022/05/16 10:55:26;;;;;;;8.00;2.75;;;;;;;19.29;30.50;100299.89;1667597;86;21012;-57
2022/05/16 10:58:09;;;;;;;3.37;0.88;;;;;;;19.40;30.01;100300.86;1665389;85;20969;-56
2022/05/16 11:00:46;;;;;;;2.47;1.10;;;;;;;19.43;29.52;100292.56;1671162;84;21020;-56
2022/05/16 11:03:47;;;;;;;4.80;1.60;;;;;;;19.48;29.86;100289.84;1662172;84;21437;-57
2022/05/16 11:06:37;;;;;;;2.52;1.30;;;;;;;19.55;29.87;100284.44;1672185;85;21063;-57
2022/05/16 11:09:24;;;;;;;3.87;1.12;;;;;;;19.61;30.35;100283.95;1671990;86;21416;-60
2022/05/16 11:12:08;;;;;;;2.42;1.10;;;;;;;19.59;30.00;100284.21;1666853;86;21421;-58
2022/05/16 11:15:11;;;;;;;2.20;1.15;;;;;;;19.57;30.01;100273.06;1652608;85;21056;-56
2022/05/16 11:18:08;;;;;;;2.90;1.32;;;;;;;19.54;29.81;100272.20;1652700;87;21435;-58
2022/05/16 11:20:45;;;;;;;4.90;1.30;;;;;;;19.48;29.58;100275.95;1652936;87;21032;-59
2022/05/16 11:23:32;;;;;;;4.65;1.40;;;;;;;19.42;29.96;100285.33;1670428;85;21052;-59
2022/05/16 11:26:15;;;;;;;3.62;1.25;;;;;;;19.45;29.83;100287.58;1679357;85;21008;-58
2022/05/16 11:29:17;;;;;;;7.80;1.40;;;;;;;19.48;30.19;100287.06;1683772;85;21012;-58
2022/05/16 11:32:09;;;;;;;3.83;1.30;;;;;;;19.52;29.96;100284.09;1690167;85;21043;-55
2022/05/16 11:35:08;;;;;;;3.42;1.05;;;;;;;19.50;29.97;100272.36;1630152;88;21019;-56
2022/05/16 11:37:58;;;;;;;3.85;0.88;;;;;;;19.44;29.42;100278.95;1629898;88;21023;-57
2022/05/16 11:40:54;;;;;;;2.35;0.93;;;;;;;19.36;29.24;100267.75;1630241;88;21004;-56
2022/05/16 11:43:28;;;;;;;3.80;1.00;;;;;;;19.31;29.45;100270.47;1630191;88;20999;-56
2022/05/16 11:46:17;;;;;;;1.40;0.70;;;;;;;19.32;29.26;100261.87;1630268;88;21100;-56
2022/05/16 11:49:21;;;;;;;3.40;1.27;;;;;;;19.42;29.38;100258.92;1628407;87;21052;-55
2022/05/16 11:52:15;;;;;;;5.42;1.10;;;;;;;19.56;29.16;100250.54;1633082;84;21525;-58
2022/05/16 12:00:31;;;;;;;2.92;1.12;;;;;;;19.67;28.95;100256.50;1689930;85;21535;-57
2022/05/16 12:03:13;;;;;;;2.87;1.32;;;;;;;19.66;29.48;100247.03;1693941;84;20996;-59
2022/05/16 12:05:45;;;;;;;;;;;;;;;19.61;29.63;100247.82;1651661;86;21008;-58
2022/05/16 12:08:32;;;;;;;5.78;2.40;;;;;;;19.54;29.58;100247.18;1649172;87;20185;-59
2022/05/16 12:11:10;;;;;;;7.53;2.05;;;;;;;19.47;29.58;100240.92;1594128;89;21022;-58
2022/05/16 12:14:01;;;;;;;4.60;1.82;;;;;;;19.40;29.67;100239.73;1595035;88;21524;-57
2022/05/16 12:16:42;;;;;;;4.83;1.80;;;;;;;19.39;29.71;100239.44;1596914;90;21080;-57
2022/05/16 12:19:24;;;;;;;4.58;1.57;;;;;;;19.35;29.86;100240.22;1598448;90;21497;-57
2022/05/16 12:21:59;;;;;;;4.10;1.70;;;;;;;19.32;30.25;100246.59;1598667;88;21116;-56
2022/05/16 12:24:32;;;;;;;4.72;1.70;;;;;;;19.33;30.18;100248.81;1604083;89;21049;-56
2022/05/16 12:27:16;;;;;;;5.85;2.20;;;;;;;19.35;29.93;100237.44;1604744;88;21083;-57
2022/05/16 12:29:55;;;;;;;5.25;1.92;;;;;;;19.33;30.04;100245.48;1611600;86;21509;-59
2022/05/16 12:32:31;;;;;;;4.58;1.80;;;;;;;19.36;30.22;100239.96;1678191;85;21011;-58